Time;durP1;ratioP1;P1;durP2;ratioP2;P2;SDS_P1;SDS_P2;PMS_P1;PMS_P2;Temp;Humidity;BMP_temperature;BMP_pressure;BME280_temperature;BME280_humidity;BME280_pressure;Samples;Min_cycle;Max_cycle;Signal;HPM_P1;HPM_P2
2022/10/01 00:00:49;;;;;;;5.23;4.83;;;11.60;99.90;;;;;;5116482;28;20214;-87
2022/10/01 00:03:16;;;;;;;5.63;5.13;;;11.60;99.90;;;;;;5116676;28;20194;-87
2022/10/01 00:05:43;;;;;;;5.53;5.00;;;11.60;99.90;;;;;;5116280;28;20205;-86
2022/10/01 00:08:13;;;;;;;5.03;4.57;;;11.60;99.90;;;;;;5116087;28;20240;-85
2022/10/01 00:10:43;;;;;;;5.20;4.77;;;11.70;99.90;;;;;;5116184;28;20208;-86
2022/10/01 00:13:10;;;;;;;5.47;5.00;;;11.70;99.90;;;;;;5114466;28;20644;-86
2022/10/01 00:15:41;;;;;;;4.87;4.43;;;11.70;99.90;;;;;;5115782;28;20209;-86
2022/10/01 00:18:09;;;;;;;6.10;4.60;;;11.70;99.90;;;;;;5115983;28;20740;-86
2022/10/01 00:20:42;;;;;;;5.68;5.00;;;11.70;99.90;;;;;;5115665;28;20433;-87
2022/10/01 00:23:09;;;;;;;5.20;4.70;;;11.70;99.90;;;;;;5116156;28;20230;-87
2022/10/01 00:25:36;;;;;;;4.47;4.10;;;11.60;99.90;;;;;;5115893;28;20205;-86
2022/10/01 00:28:04;;;;;;;5.13;4.63;;;11.60;99.90;;;;;;5115885;28;20198;-86
2022/10/01 00:30:32;;;;;;;6.03;4.53;;;11.60;99.90;;;;;;5115655;28;20197;-87
2022/10/01 00:32:59;;;;;;;5.03;4.63;;;11.60;99.90;;;;;;5116155;27;20193;-86
2022/10/01 00:35:26;;;;;;;5.60;4.83;;;11.60;99.90;;;;;;5115651;28;20210;-86
2022/10/01 00:37:53;;;;;;;5.33;4.50;;;11.60;99.90;;;;;;5115484;28;20563;-86
2022/10/01 00:40:21;;;;;;;5.47;4.27;;;11.60;99.90;;;;;;5115513;28;20556;-86
2022/10/01 00:42:48;;;;;;;5.20;4.70;;;11.60;99.90;;;;;;5115439;28;20256;-86
2022/10/01 00:45:17;;;;;;;4.37;3.97;;;11.60;99.90;;;;;;5115274;28;20209;-87
2022/10/01 00:47:49;;;;;;;4.23;3.93;;;11.70;99.90;;;;;;5114355;28;20205;-87
2022/10/01 00:50:20;;;;;;;4.97;4.07;;;11.60;99.90;;;;;;5115339;28;20206;-86
2022/10/01 00:52:52;;;;;;;5.07;3.87;;;11.60;99.90;;;;;;5115935;28;20188;-87
2022/10/01 00:55:23;;;;;;;4.30;4.00;;;11.60;99.90;;;;;;5114065;28;20202;-87
2022/10/01 00:57:51;;;;;;;4.30;4.00;;;11.70;99.90;;;;;;5115126;28;20732;-86
2022/10/01 01:00:21;;;;;;;3.77;3.47;;;11.70;99.90;;;;;;5115425;28;20216;-87
2022/10/01 01:02:48;;;;;;;3.90;3.60;;;11.60;99.90;;;;;;5115334;28;20240;-87
2022/10/01 01:05:15;;;;;;;3.70;3.43;;;11.70;99.90;;;;;;5115038;28;20193;-86
2022/10/01 01:07:46;;;;;;;4.20;3.90;;;11.70;99.90;;;;;;5115307;28;20225;-87
2022/10/01 01:10:16;;;;;;;3.70;3.50;;;11.70;99.90;;;;;;5114753;28;20192;-86
2022/10/01 01:13:09;;;;;;;3.33;3.13;;;11.70;99.90;;;;;;5115049;28;20295;-87
2022/10/01 01:15:45;;;;;;;3.77;3.47;;;11.70;99.90;;;;;;5114759;28;20661;-87
2022/10/01 01:18:18;;;;;;;4.33;3.30;;;11.70;99.90;;;;;;5114997;28;20201;-84
2022/10/01 01:21:16;;;;;;;3.80;3.40;;;11.70;99.90;;;;;;5114748;28;20203;-86
2022/10/01 01:24:19;;;;;;;3.20;3.00;;;11.70;99.90;;;;;;5114548;28;20197;-87
2022/10/01 01:26:54;;;;;;;2.83;2.63;;;11.80;99.90;;;;;;5114491;28;20186;-87
2022/10/01 01:29:28;;;;;;;2.70;2.60;;;11.70;99.90;;;;;;5114931;28;20194;-85
2022/10/01 01:32:01;;;;;;;2.50;2.40;;;11.80;99.90;;;;;;5114595;28;20223;-87
2022/10/01 01:34:33;;;;;;;2.87;2.67;;;11.80;99.90;;;;;;5114530;28;20206;-87
2022/10/01 01:37:04;;;;;;;2.80;2.60;;;11.80;99.90;;;;;;5114560;28;20208;-87
2022/10/01 01:39:33;;;;;;;2.93;2.63;;;11.80;99.90;;;;;;5114393;28;20189;-87
2022/10/01 01:42:05;;;;;;;2.17;2.07;;;11.80;99.90;;;;;;5114479;28;20233;-87
2022/10/01 01:44:38;;;;;;;2.70;2.50;;;11.80;99.90;;;;;;5114645;28;20218;-86
2022/10/01 01:47:06;;;;;;;4.40;2.30;;;11.90;99.90;;;;;;5114446;28;20202;-87
2022/10/01 01:49:34;;;;;;;3.27;2.50;;;11.90;99.90;;;;;;5113290;28;20603;-86
2022/10/01 01:52:05;;;;;;;4.00;2.40;;;11.90;99.90;;;;;;5114423;28;20205;-85
2022/10/01 01:54:35;;;;;;;2.23;2.03;;;11.90;99.90;;;;;;5114251;28;20193;-87
2022/10/01 01:57:04;;;;;;;2.07;1.93;;;11.90;99.90;;;;;;5114063;28;20651;-87
2022/10/01 01:59:34;;;;;;;2.30;1.83;;;12.00;99.90;;;;;;5114424;28;20211;-88
2022/10/01 02:02:02;;;;;;;2.53;2.00;;;11.90;99.90;;;;;;5114557;28;20223;-87
2022/10/01 02:04:33;;;;;;;2.20;2.10;;;12.00;99.90;;;;;;5114425;28;20281;-87
2022/10/01 02:07:36;;;;;;;1.93;1.83;;;12.00;99.90;;;;;;5114295;28;20205;-86
2022/10/01 02:10:16;;;;;;;1.70;1.60;;;12.00;99.90;;;;;;5114008;28;20212;-87
2022/10/01 02:12:54;;;;;;;2.83;1.83;;;12.00;99.90;;;;;;5113909;28;20197;-88
2022/10/01 02:15:27;;;;;;;1.70;1.60;;;12.10;99.90;;;;;;5113902;28;20557;-87
2022/10/01 02:18:01;;;;;;;2.47;2.00;;;12.10;99.90;;;;;;5112881;28;20925;-87
2022/10/01 02:20:32;;;;;;;1.83;1.73;;;12.20;99.90;;;;;;5112635;28;20272;-87
2022/10/01 02:23:03;;;;;;;1.60;1.50;;;12.10;99.90;;;;;;5113557;28;20229;-87
2022/10/01 02:25:37;;;;;;;2.57;1.63;;;12.10;99.90;;;;;;5112376;28;20201;-87
2022/10/01 02:28:09;;;;;;;1.70;1.60;;;12.10;99.90;;;;;;5113997;28;20212;-87
2022/10/01 02:30:39;;;;;;;1.67;1.57;;;12.10;99.90;;;;;;5113988;28;20190;-87
2022/10/01 02:33:09;;;;;;;1.40;1.30;;;12.20;99.90;;;;;;5113835;28;20669;-87
2022/10/01 02:35:38;;;;;;;1.50;1.40;;;12.20;99.90;;;;;;5113629;28;20197;-87
2022/10/01 02:38:08;;;;;;;1.53;1.43;;;12.20;99.90;;;;;;5113532;28;20206;-87
2022/10/01 02:40:38;;;;;;;1.43;1.40;;;12.20;99.90;;;;;;5114151;28;20189;-87
2022/10/01 02:43:09;;;;;;;1.50;1.40;;;12.20;99.90;;;;;;5114002;28;20219;-85
2022/10/01 02:45:40;;;;;;;1.97;1.77;;;12.30;99.90;;;;;;5113999;28;20205;-87
2022/10/01 02:48:09;;;;;;;1.90;1.80;;;12.40;99.90;;;;;;5113415;28;20553;-86
2022/10/01 02:50:44;;;;;;;2.23;1.87;;;12.30;99.90;;;;;;5113747;28;20199;-87
2022/10/01 02:53:16;;;;;;;2.37;2.17;;;12.40;99.90;;;;;;5113387;28;20205;-86
2022/10/01 02:55:44;;;;;;;2.07;1.90;;;12.40;99.90;;;;;;5114115;28;20198;-87
2022/10/01 02:58:11;;;;;;;2.30;2.20;;;12.40;99.90;;;;;;5113467;28;20206;-86
2022/10/01 03:00:39;;;;;;;2.30;2.20;;;12.40;99.90;;;;;;5113677;28;20200;-86
2022/10/01 03:03:06;;;;;;;2.43;2.23;;;12.50;99.90;;;;;;5113394;28;20234;-87
2022/10/01 03:05:32;;;;;;;3.13;2.70;;;12.50;99.90;;;;;;5113473;28;20201;-87
2022/10/01 03:07:59;;;;;;;2.47;2.27;;;12.60;99.90;;;;;;5112888;28;20227;-86
2022/10/01 03:10:26;;;;;;;3.20;2.80;;;12.60;99.90;;;;;;5113523;28;20198;-86
2022/10/01 03:12:53;;;;;;;2.60;2.50;;;12.70;99.90;;;;;;5113406;28;20213;-86
2022/10/01 03:15:20;;;;;;;3.95;3.17;;;12.70;99.90;;;;;;5112663;28;20444;-85
2022/10/01 03:17:51;;;;;;;3.10;2.90;;;12.80;99.90;;;;;;5113510;28;20208;-86
2022/10/01 03:20:18;;;;;;;2.93;2.60;;;12.80;99.90;;;;;;5113572;28;20573;-88
2022/10/01 03:22:44;;;;;;;3.10;2.90;;;12.80;99.90;;;;;;5113429;28;20219;-87
2022/10/01 03:25:12;;;;;;;3.47;2.50;;;12.90;99.90;;;;;;5113670;28;20219;-88
2022/10/01 03:27:41;;;;;;;3.53;2.67;;;12.90;99.90;;;;;;5113257;28;20199;-87
2022/10/01 03:30:09;;;;;;;2.60;2.50;;;13.00;99.90;;;;;;5113309;28;20193;-87
2022/10/01 03:32:36;;;;;;;3.00;2.30;;;12.90;99.90;;;;;;5113358;28;20212;-88
2022/10/01 03:35:05;;;;;;;5.10;2.80;;;13.00;99.90;;;;;;5112975;28;20691;-87
2022/10/01 03:37:32;;;;;;;2.73;2.63;;;13.00;99.90;;;;;;5113575;28;20191;-87
2022/10/01 03:40:00;;;;;;;2.57;2.37;;;13.00;99.90;;;;;;5113329;28;20196;-87
2022/10/01 03:42:27;;;;;;;2.50;2.40;;;13.00;99.90;;;;;;5113390;28;20682;-86
2022/10/01 03:44:54;;;;;;;3.35;2.70;;;13.10;99.90;;;;;;5112355;28;20425;-87
2022/10/01 03:47:23;;;;;;;2.20;2.10;;;13.20;99.90;;;;;;5116861;28;20235;-86
2022/10/01 03:49:50;;;;;;;2.33;2.17;;;13.20;99.90;;;;;;5116560;28;20192;-87
2022/10/01 03:52:19;;;;;;;3.73;2.17;;;13.20;99.90;;;;;;5117035;28;20195;-86
2022/10/01 03:54:46;;;;;;;2.47;2.30;;;13.30;99.90;;;;;;5127522;27;20206;-86
2022/10/01 03:57:12;;;;;;;3.27;2.20;;;13.20;99.90;;;;;;5130586;27;20218;-86
2022/10/01 03:59:39;;;;;;;2.90;1.90;;;13.20;99.90;;;;;;5135494;27;20202;-87
2022/10/01 04:02:06;;;;;;;2.13;2.00;;;13.30;99.90;;;;;;5135218;27;20203;-84
2022/10/01 04:04:33;;;;;;;3.73;1.90;;;13.30;99.90;;;;;;5136066;27;20198;-86
2022/10/01 04:06:59;;;;;;;2.50;1.70;;;13.20;99.90;;;;;;5136727;27;20202;-86
2022/10/01 04:09:28;;;;;;;1.83;1.73;;;13.30;99.90;;;;;;5136676;27;20226;-86
2022/10/01 04:11:54;;;;;;;2.10;2.00;;;13.30;99.90;;;;;;5137058;27;20195;-86
2022/10/01 04:14:21;;;;;;;1.63;1.53;;;13.40;99.90;;;;;;5136986;27;20211;-86
2022/10/01 04:16:51;;;;;;;2.20;2.00;;;13.40;99.90;;;;;;5135909;27;20434;-86
2022/10/01 04:19:18;;;;;;;1.90;1.80;;;13.50;99.90;;;;;;5136684;27;20184;-84
2022/10/01 04:21:44;;;;;;;1.90;1.80;;;13.50;99.90;;;;;;5136803;27;20601;-85
2022/10/01 04:24:11;;;;;;;2.07;1.90;;;13.40;99.90;;;;;;5136669;27;20234;-84
2022/10/01 04:26:45;;;;;;;2.10;2.00;;;13.50;99.90;;;;;;5136839;27;20202;-85
2022/10/01 04:29:13;;;;;;;1.87;1.83;;;13.50;99.90;;;;;;5136866;27;20192;-84
2022/10/01 04:31:40;;;;;;;2.50;2.30;;;13.50;99.90;;;;;;5136670;27;20737;-84
2022/10/01 04:34:07;;;;;;;2.97;2.77;;;13.50;99.90;;;;;;5136834;27;20198;-84
2022/10/01 04:36:34;;;;;;;2.73;2.53;;;13.50;99.90;;;;;;5136899;27;20191;-84
2022/10/01 04:39:00;;;;;;;3.07;2.60;;;13.50;99.90;;;;;;5136605;27;20199;-84
2022/10/01 04:41:29;;;;;;;3.10;2.90;;;13.50;99.90;;;;;;5136398;27;20639;-84
2022/10/01 04:43:59;;;;;;;3.57;3.20;;;13.50;99.90;;;;;;5136811;27;20222;-84
2022/10/01 04:46:27;;;;;;;4.75;4.25;;;13.60;99.90;;;;;;5135549;27;20430;-86
2022/10/01 04:48:55;;;;;;;4.40;4.00;;;13.70;99.90;;;;;;5136200;27;20200;-85
2022/10/01 04:51:22;;;;;;;3.87;3.67;;;13.70;99.90;;;;;;5135942;27;20206;-83
2022/10/01 04:53:49;;;;;;;3.30;3.20;;;13.70;99.90;;;;;;5136403;27;20195;-84
2022/10/01 04:56:20;;;;;;;3.37;3.07;;;13.70;99.90;;;;;;5135397;27;20200;-84
2022/10/01 04:58:48;;;;;;;3.70;3.50;;;13.80;99.90;;;;;;5135766;27;20200;-84
2022/10/01 05:01:16;;;;;;;3.60;3.40;;;13.90;99.90;;;;;;5134838;27;20203;-83
2022/10/01 05:03:45;;;;;;;4.37;4.00;;;13.80;99.90;;;;;;5130844;27;20698;-84
2022/10/01 05:06:12;;;;;;;4.93;3.50;;;13.80;99.90;;;;;;5135097;27;20204;-81
2022/10/01 05:08:39;;;;;;;4.80;3.90;;;13.70;99.90;;;;;;5134449;27;20232;-83
2022/10/01 05:11:06;;;;;;;4.23;3.53;;;13.80;99.90;;;;;;5135706;27;20207;-83
2022/10/01 05:13:32;;;;;;;4.17;3.93;;;13.80;99.90;;;;;;5135709;27;20214;-83
2022/10/01 05:15:59;;;;;;;6.20;4.23;;;13.80;99.90;;;;;;5135264;27;20206;-83
2022/10/01 05:18:29;;;;;;;4.33;4.03;;;13.80;99.90;;;;;;5135496;27;20200;-84
2022/10/01 05:20:55;;;;;;;4.67;4.37;;;13.80;99.90;;;;;;5135586;27;20202;-84
2022/10/01 05:23:23;;;;;;;5.80;4.90;;;13.80;99.90;;;;;;5135269;27;20740;-84
2022/10/01 05:25:50;;;;;;;7.40;5.83;;;13.80;99.90;;;;;;5134978;27;20211;-84
2022/10/01 05:28:18;;;;;;;7.77;6.27;;;13.70;99.90;;;;;;5135660;27;20194;-84
2022/10/01 05:30:45;;;;;;;6.03;5.47;;;13.80;99.90;;;;;;5135186;27;20199;-84
2022/10/01 05:33:12;;;;;;;8.13;6.33;;;13.80;99.90;;;;;;5135509;27;20651;-86
2022/10/01 05:35:41;;;;;;;7.57;6.97;;;13.80;99.90;;;;;;5135313;27;20662;-84
2022/10/01 05:38:08;;;;;;;7.67;7.07;;;13.80;99.90;;;;;;5135110;27;20203;-84
2022/10/01 05:40:35;;;;;;;7.23;6.63;;;13.80;99.90;;;;;;5135077;27;20208;-84
2022/10/01 05:43:03;;;;;;;9.18;8.35;;;13.90;99.90;;;;;;5134170;27;20435;-84
2022/10/01 05:45:31;;;;;;;8.77;7.00;;;13.90;99.90;;;;;;5134296;27;20260;-84
2022/10/01 05:48:01;;;;;;;8.13;7.33;;;13.90;99.90;;;;;;5134677;27;20206;-84
2022/10/01 05:50:30;;;;;;;8.57;7.73;;;14.00;99.90;;;;;;5135167;27;20196;-83
2022/10/01 05:52:58;;;;;;;8.17;7.43;;;14.00;99.90;;;;;;5134943;27;20651;-84
2022/10/01 05:55:25;;;;;;;8.63;7.40;;;14.00;99.90;;;;;;5135402;27;20188;-85
2022/10/01 05:57:57;;;;;;;8.53;7.73;;;14.10;99.90;;;;;;5135130;27;20192;-83
2022/10/01 06:00:26;;;;;;;8.17;7.43;;;14.10;99.90;;;;;;5134846;27;20204;-84
2022/10/01 06:02:58;;;;;;;10.03;7.77;;;14.20;99.90;;;;;;5134727;27;20238;-85
2022/10/01 06:05:26;;;;;;;7.97;7.27;;;14.20;99.90;;;;;;5134322;27;20245;-84
2022/10/01 06:07:53;;;;;;;8.30;7.57;;;14.30;99.90;;;;;;5134493;27;20703;-83
2022/10/01 06:10:26;;;;;;;9.20;7.30;;;14.40;99.90;;;;;;5134712;27;20261;-81
2022/10/01 06:12:59;;;;;;;8.03;6.93;;;14.30;99.90;;;;;;5134277;27;20203;-82
2022/10/01 06:15:26;;;;;;;7.20;6.50;;;14.30;99.90;;;;;;5134116;27;20662;-82
2022/10/01 06:17:53;;;;;;;7.37;5.20;;;14.30;99.90;;;;;;5134223;27;20195;-81
2022/10/01 06:20:20;;;;;;;6.70;4.30;;;14.30;99.90;;;;;;5133967;27;20203;-81
2022/10/01 06:22:54;;;;;;;6.27;4.00;;;14.30;99.90;;;;;;5133647;27;20627;-82
2022/10/01 06:25:22;;;;;;;5.73;3.20;;;14.30;99.90;;;;;;5134480;27;20294;-80
2022/10/01 06:27:55;;;;;;;5.37;3.20;;;14.30;99.90;;;;;;5133987;27;20202;-81
2022/10/01 06:30:22;;;;;;;3.20;2.63;;;14.40;99.90;;;;;;5133755;27;20195;-81
2022/10/01 06:32:49;;;;;;;2.90;2.30;;;14.40;99.90;;;;;;5134019;27;20188;-82
2022/10/01 06:35:19;;;;;;;4.50;2.10;;;14.40;99.90;;;;;;5134229;27;20194;-81
2022/10/01 06:37:45;;;;;;;4.50;2.53;;;14.30;99.90;;;;;;5133818;27;20945;-82
2022/10/01 06:40:12;;;;;;;6.50;2.53;;;14.30;99.90;;;;;;5134354;28;20201;-82
2022/10/01 06:42:48;;;;;;;5.50;2.20;;;14.40;99.90;;;;;;5133907;28;20204;-81
2022/10/01 06:45:16;;;;;;;7.07;2.67;;;14.40;99.90;;;;;;5133757;28;20208;-85
2022/10/01 06:47:43;;;;;;;7.67;3.07;;;14.40;99.90;;;;;;5133953;28;20589;-85
2022/10/01 06:50:10;;;;;;;5.73;3.53;;;14.40;99.90;;;;;;5131346;28;20193;-85
2022/10/01 06:52:49;;;;;;;9.90;4.10;;;14.40;99.90;;;;;;5122395;28;20554;-85
2022/10/01 06:55:18;;;;;;;16.10;3.77;;;14.50;99.90;;;;;;5127830;28;20628;-86
2022/10/01 06:57:46;;;;;;;8.03;3.00;;;14.60;99.90;;;;;;5115917;27;20201;-87
2022/10/01 07:00:14;;;;;;;11.50;2.90;;;14.60;99.90;;;;;;5113894;28;20243;-85
2022/10/01 07:02:41;;;;;;;14.07;3.70;;;14.70;99.90;;;;;;5120689;28;20196;-85
2022/10/01 07:05:08;;;;;;;11.33;3.10;;;14.70;99.90;;;;;;5123157;28;20235;-86
2022/10/01 07:07:37;;;;;;;11.33;3.40;;;14.70;99.90;;;;;;5114357;28;20208;-86
2022/10/01 07:10:05;;;;;;;12.13;3.17;;;14.80;99.90;;;;;;5113866;28;20204;-86
2022/10/01 07:12:33;;;;;;;10.30;2.93;;;14.80;99.90;;;;;;5113103;28;20211;-86
2022/10/01 07:15:00;;;;;;;11.43;3.40;;;14.80;99.90;;;;;;5113154;28;20210;-86
2022/10/01 07:17:28;;;;;;;9.83;2.67;;;14.90;99.90;;;;;;5113562;28;20200;-85
2022/10/01 07:19:55;;;;;;;14.73;4.10;;;14.90;99.90;;;;;;5114230;28;20193;-86
2022/10/01 07:22:23;;;;;;;13.83;3.77;;;14.90;99.90;;;;;;5117441;28;20189;-86
2022/10/01 07:24:50;;;;;;;8.37;3.00;;;15.10;99.90;;;;;;5117085;28;20233;-87
2022/10/01 07:27:17;;;;;;;10.40;2.87;;;15.00;99.90;;;;;;5117125;28;20202;-86
2022/10/01 07:29:44;;;;;;;8.93;2.97;;;15.10;99.90;;;;;;5117042;28;20201;-86
2022/10/01 07:32:11;;;;;;;9.63;2.70;;;15.20;99.90;;;;;;5117493;28;20216;-86
2022/10/01 07:34:40;;;;;;;14.83;3.13;;;15.30;99.90;;;;;;5117309;27;20206;-86
2022/10/01 07:37:06;;;;;;;7.80;2.90;;;15.30;99.90;;;;;;5117128;28;20204;-86
2022/10/01 07:39:33;;;;;;;9.40;2.70;;;15.30;99.90;;;;;;5117209;28;20202;-86
2022/10/01 07:42:00;;;;;;;9.23;2.50;;;15.30;99.90;;;;;;5116704;28;20190;-86
2022/10/01 07:44:28;;;;;;;10.20;2.63;;;15.30;99.90;;;;;;5122839;27;20232;-84
2022/10/01 07:46:55;;;;;;;14.30;3.20;;;15.30;99.90;;;;;;5126955;27;20195;-85
2022/10/01 07:49:22;;;;;;;14.87;3.30;;;15.30;99.90;;;;;;5125148;27;20254;-84
2022/10/01 07:51:52;;;;;;;9.40;3.30;;;15.30;99.90;;;;;;5118707;27;20202;-86
2022/10/01 07:54:20;;;;;;;12.67;3.50;;;15.40;99.90;;;;;;5116699;28;20646;-85
2022/10/01 07:56:47;;;;;;;12.17;3.07;;;15.40;99.90;;;;;;5116007;27;20570;-86
2022/10/01 07:59:15;;;;;;;13.27;3.27;;;15.40;99.90;;;;;;5119188;27;20641;-85
2022/10/01 08:01:42;;;;;;;10.80;3.40;;;15.40;99.90;;;;;;5121974;27;20198;-84
2022/10/01 08:06:51;;;;;;;15.05;4.10;;;15.60;99.90;;;;;;5136089;27;20426;-85
2022/10/01 08:09:18;;;;;;;16.13;3.90;;;15.60;99.90;;;;;;5136090;27;20310;-83
2022/10/01 08:11:47;;;;;;;13.63;3.03;;;15.70;99.90;;;;;;5127737;27;20205;-85
2022/10/01 08:14:15;;;;;;;11.60;3.53;;;15.70;99.90;;;;;;5117479;27;20294;-85
2022/10/01 08:16:42;;;;;;;10.33;3.07;;;15.70;99.90;;;;;;5116544;28;20645;-86
2022/10/01 08:19:08;;;;;;;15.90;4.17;;;15.80;99.90;;;;;;5116172;28;20205;-86
2022/10/01 08:21:35;;;;;;;10.50;3.17;;;15.80;99.90;;;;;;5116250;28;20210;-86
2022/10/01 08:24:04;;;;;;;18.07;3.77;;;15.80;99.90;;;;;;5116242;28;20234;-85
2022/10/01 08:26:31;;;;;;;14.17;3.27;;;15.80;99.90;;;;;;5115927;28;20206;-86
2022/10/01 08:28:58;;;;;;;11.73;3.30;;;15.90;99.90;;;;;;5115958;28;20206;-85
2022/10/01 08:31:25;;;;;;;16.67;3.17;;;16.00;99.90;;;;;;5116013;28;20208;-83
2022/10/01 08:33:52;;;;;;;14.97;4.10;;;16.10;99.90;;;;;;5114922;28;20196;-86
2022/10/01 08:36:19;;;;;;;13.57;4.50;;;16.10;99.90;;;;;;5115873;28;20237;-85
2022/10/01 08:38:47;;;;;;;12.33;4.93;;;16.10;99.90;;;;;;5116163;28;20188;-85
2022/10/01 08:41:27;;;;;;;16.23;5.17;;;16.20;99.90;;;;;;5115556;28;20192;-85
2022/10/01 08:43:54;;;;;;;17.90;6.30;;;16.30;99.90;;;;;;5115874;28;20264;-85
2022/10/01 08:46:24;;;;;;;13.47;5.83;;;16.30;99.90;;;;;;5115665;28;20208;-85
2022/10/01 08:48:58;;;;;;;14.93;5.33;;;16.40;99.90;;;;;;5115580;28;20211;-85
2022/10/01 08:51:29;;;;;;;17.17;5.27;;;16.40;99.90;;;;;;5115483;28;20640;-84
2022/10/01 08:54:03;;;;;;;14.93;5.10;;;16.40;99.90;;;;;;5115320;28;20605;-85
2022/10/01 08:56:35;;;;;;;14.93;4.40;;;16.40;99.90;;;;;;5117889;27;20188;-85
2022/10/01 08:59:09;;;;;;;12.33;4.67;;;16.30;99.90;;;;;;5128621;27;20192;-83
2022/10/01 09:01:36;;;;;;;15.80;4.47;;;16.30;99.90;;;;;;5135667;27;20192;-83
2022/10/01 09:04:04;;;;;;;13.07;4.07;;;16.40;99.90;;;;;;5135343;27;20228;-84
2022/10/01 09:06:31;;;;;;;16.90;4.90;;;16.40;99.90;;;;;;5128520;27;20436;-84
2022/10/01 09:09:16;;;;;;;13.77;4.10;;;16.40;99.90;;;;;;5122180;27;20235;-85
2022/10/01 09:11:57;;;;;;;13.50;4.77;;;16.30;99.90;;;;;;5115092;28;20671;-84
2022/10/01 09:14:38;;;;;;;11.23;4.33;;;16.40;99.90;;;;;;5115058;28;20237;-84
2022/10/01 09:17:14;;;;;;;14.03;3.80;;;16.40;99.90;;;;;;5114701;28;20211;-81
2022/10/01 09:19:59;;;;;;;17.30;4.40;;;16.40;99.90;;;;;;5114684;28;20215;-82
2022/10/01 09:22:36;;;;;;;11.87;3.93;;;16.50;99.90;;;;;;5115242;28;20195;-83
2022/10/01 09:25:11;;;;;;;15.20;3.97;;;16.50;99.90;;;;;;5114325;28;20243;-83
2022/10/01 09:27:40;;;;;;;15.20;4.00;;;16.60;99.90;;;;;;5115099;28;20188;-83
2022/10/01 09:30:13;;;;;;;11.80;4.00;;;16.60;99.90;;;;;;5114465;28;20702;-83
2022/10/01 09:32:44;;;;;;;10.67;3.37;;;16.90;99.90;;;;;;5114671;28;20672;-84
2022/10/01 09:35:22;;;;;;;13.30;3.90;;;17.10;99.90;;;;;;5114604;28;20606;-83
2022/10/01 09:37:55;;;;;;;14.50;3.00;;;17.20;99.90;;;;;;5114283;28;20610;-82
2022/10/01 09:40:30;;;;;;;10.07;3.00;;;17.20;99.90;;;;;;5114405;28;20201;-83
2022/10/01 09:42:59;;;;;;;10.80;3.10;;;17.20;99.90;;;;;;5113890;28;20200;-85
2022/10/01 09:45:27;;;;;;;8.27;2.97;;;17.20;99.90;;;;;;5123248;27;20221;-85
2022/10/01 09:48:00;;;;;;;17.00;3.60;;;17.00;99.90;;;;;;5124152;27;20235;-81
2022/10/01 09:50:34;;;;;;;11.83;3.70;;;16.90;99.90;;;;;;5134574;27;20261;-81
2022/10/01 09:53:02;;;;;;;11.83;3.30;;;16.90;99.90;;;;;;5133658;27;20269;-84
2022/10/01 09:55:34;;;;;;;13.20;3.77;;;17.00;99.90;;;;;;5134703;27;20196;-84
2022/10/01 09:58:08;;;;;;;9.00;3.00;;;17.10;99.90;;;;;;5134561;27;20207;-86
2022/10/01 10:00:37;;;;;;;9.53;3.40;;;17.20;99.90;;;;;;5133325;27;20651;-82
2022/10/01 10:03:04;;;;;;;12.77;3.13;;;17.20;99.90;;;;;;5134039;27;20193;-83
2022/10/01 10:05:41;;;;;;;10.00;3.27;;;17.30;99.90;;;;;;5134097;27;20225;-83
2022/10/01 10:08:12;;;;;;;12.70;3.47;;;17.40;99.90;;;;;;5133407;27;20232;-83
2022/10/01 10:10:49;;;;;;;13.97;3.73;;;17.30;99.90;;;;;;5134606;27;20204;-82
2022/10/01 10:13:23;;;;;;;17.83;4.30;;;17.40;99.90;;;;;;5134329;27;20196;-83
2022/10/01 10:15:52;;;;;;;12.03;3.60;;;17.40;99.90;;;;;;5125924;27;20194;-82
2022/10/01 10:18:27;;;;;;;10.40;3.10;;;17.50;99.90;;;;;;5118997;27;20189;-83
2022/10/01 10:20:55;;;;;;;10.20;3.03;;;17.60;99.90;;;;;;5113048;28;20633;-83
2022/10/01 10:23:24;;;;;;;10.03;3.37;;;17.70;99.90;;;;;;5113389;28;20194;-82
2022/10/01 10:25:59;;;;;;;12.80;3.03;;;17.90;99.90;;;;;;5113275;28;20579;-83
2022/10/01 10:28:29;;;;;;;14.00;3.40;;;17.80;99.90;;;;;;5126873;27;20634;-81
2022/10/01 10:30:57;;;;;;;7.47;2.97;;;17.70;99.90;;;;;;5133578;27;20222;-83
2022/10/01 10:33:26;;;;;;;15.00;3.47;;;17.50;99.90;;;;;;5133308;27;20199;-82
2022/10/01 10:36:07;;;;;;;11.63;4.37;;;17.40;99.90;;;;;;5133860;27;20212;-82
2022/10/01 10:38:35;;;;;;;15.90;4.23;;;17.30;99.90;;;;;;5134164;27;20185;-83
2022/10/01 10:41:04;;;;;;;14.13;4.53;;;17.00;99.90;;;;;;5133721;28;20215;-83
2022/10/01 10:43:36;;;;;;;10.47;4.07;;;16.80;99.90;;;;;;5133724;28;20287;-84
2022/10/01 10:46:08;;;;;;;15.60;4.97;;;16.60;99.90;;;;;;5133507;28;20227;-82
2022/10/01 10:48:42;;;;;;;17.57;4.57;;;16.50;99.90;;;;;;5133842;28;20200;-83
2022/10/01 10:51:09;;;;;;;12.53;4.30;;;16.50;99.90;;;;;;5133275;28;20204;-82
2022/10/01 10:53:43;;;;;;;12.93;3.93;;;16.50;99.90;;;;;;5133840;27;20252;-82
2022/10/01 10:56:21;;;;;;;10.50;3.17;;;16.60;99.90;;;;;;5138011;27;20651;-84
2022/10/01 10:58:50;;;;;;;11.63;3.70;;;16.60;99.90;;;;;;5137648;27;20198;-83
2022/10/01 11:01:26;;;;;;;14.77;4.40;;;16.70;99.90;;;;;;5137469;27;20203;-82
2022/10/01 11:03:56;;;;;;;11.27;3.37;;;16.80;99.90;;;;;;5119653;27;20205;-83
2022/10/01 11:06:23;;;;;;;11.63;3.23;;;16.90;99.90;;;;;;5117116;27;20591;-83
2022/10/01 11:09:10;;;;;;;11.80;3.33;;;17.00;99.90;;;;;;5120381;27;20219;-83
2022/10/01 11:11:47;;;;;;;10.23;2.87;;;17.30;99.90;;;;;;5131156;27;20662;-82
2022/10/01 11:14:32;;;;;;;14.17;3.73;;;17.40;99.90;;;;;;5137406;27;20209;-82
2022/10/01 11:17:39;;;;;;;10.50;3.03;;;17.60;99.90;;;;;;5127860;27;20207;-81
2022/10/01 11:20:33;;;;;;;13.83;2.97;;;17.90;99.90;;;;;;5125537;27;20679;-83
2022/10/01 11:23:16;;;;;;;11.07;3.13;;;17.90;99.90;;;;;;5137665;27;20195;-82
2022/10/01 11:25:52;;;;;;;14.30;2.50;;;18.10;99.90;;;;;;5137107;27;20222;-80
2022/10/01 11:28:37;;;;;;;12.23;2.97;;;18.20;99.90;;;;;;5137334;27;20285;-81
2022/10/01 11:31:13;;;;;;;12.17;3.17;;;18.10;99.90;;;;;;5137222;27;20665;-80
2022/10/01 11:34:01;;;;;;;16.57;3.73;;;18.00;99.90;;;;;;5136661;27;20210;-82
2022/10/01 11:36:34;;;;;;;13.53;2.93;;;17.90;99.90;;;;;;5138181;27;20209;-87
2022/10/01 11:39:04;;;;;;;12.70;3.37;;;17.80;99.90;;;;;;5137458;27;20284;-88
2022/10/01 11:41:37;;;;;;;12.40;3.17;;;17.60;99.90;;;;;;5137970;27;20202;-86
2022/10/01 11:44:08;;;;;;;11.07;3.07;;;17.40;99.90;;;;;;5137842;27;20298;-86
2022/10/01 11:46:45;;;;;;;15.33;3.23;;;17.30;99.90;;;;;;5137613;27;20229;-87
2022/10/01 11:49:29;;;;;;;10.83;3.17;;;17.20;99.90;;;;;;5137288;27;20190;-87
2022/10/01 11:52:08;;;;;;;8.73;3.00;;;17.10;99.90;;;;;;5137495;27;20220;-87
2022/10/01 11:54:39;;;;;;;10.17;2.60;;;17.20;99.90;;;;;;5137884;27;20225;-87
2022/10/01 12:00:04;;;;;;;10.80;2.40;;;17.40;99.90;;;;;;5137608;27;20698;-87
2022/10/01 12:02:39;;;;;;;11.43;3.10;;;17.40;99.90;;;;;;5128049;27;20207;-86
2022/10/01 12:05:10;;;;;;;15.77;3.80;;;17.40;99.90;;;;;;5116999;27;20233;-86
2022/10/01 12:07:44;;;;;;;10.00;2.77;;;17.40;99.90;;;;;;5135913;27;20204;-86
2022/10/01 12:10:24;;;;;;;12.53;3.20;;;17.40;99.90;;;;;;5122958;27;20210;-86
2022/10/01 12:12:56;;;;;;;9.47;2.80;;;17.30;99.90;;;;;;5116397;28;20246;-84
2022/10/01 12:15:29;;;;;;;10.37;2.50;;;17.30;99.90;;;;;;5116371;27;20198;-86
2022/10/01 12:18:04;;;;;;;11.10;2.50;;;17.40;99.90;;;;;;5115358;28;20199;-84
2022/10/01 12:20:39;;;;;;;11.50;2.90;;;17.50;99.90;;;;;;5115170;28;20206;-84
2022/10/01 12:23:10;;;;;;;7.53;2.47;;;17.70;99.90;;;;;;5115281;28;20213;-84
2022/10/01 12:25:53;;;;;;;7.47;2.47;;;17.90;99.90;;;;;;5115389;28;20212;-88
2022/10/01 12:28:29;;;;;;;10.32;2.60;;;18.20;99.90;;;;;;5115106;28;20428;-86
2022/10/01 12:31:04;;;;;;;9.27;2.27;;;18.50;99.90;;;;;;5116360;28;20282;-85
2022/10/01 12:33:58;;;;;;;8.90;2.60;;;18.50;99.90;;;;;;5116038;28;20207;-85
2022/10/01 12:36:35;;;;;;;11.07;2.20;;;18.60;99.90;;;;;;5114795;28;20664;-85
2022/10/01 12:39:18;;;;;;;8.03;2.10;;;18.70;99.90;;;;;;5116236;28;20219;-84
2022/10/01 12:41:50;;;;;;;9.90;2.50;;;19.00;99.90;;;;;;5115754;28;20656;-82
2022/10/01 12:44:35;;;;;;;7.87;2.10;;;19.10;99.90;;;;;;5116365;28;20253;-81
2022/10/01 12:47:15;;;;;;;6.87;2.00;;;19.20;99.90;;;;;;5115777;28;20236;-82
2022/10/01 12:49:49;;;;;;;7.73;2.40;;;19.00;99.90;;;;;;5113968;28;20215;-83
2022/10/01 12:52:26;;;;;;;6.60;2.43;;;18.60;99.90;;;;;;5115858;28;20197;-81
2022/10/01 12:55:14;;;;;;;13.83;2.63;;;18.40;99.90;;;;;;5115297;28;20204;-82
2022/10/01 12:57:49;;;;;;;13.30;2.47;;;18.20;99.90;;;;;;5115681;28;20192;-84
2022/10/01 13:00:19;;;;;;;11.50;2.63;;;18.10;99.90;;;;;;5115745;28;20201;-83
2022/10/01 13:03:13;;;;;;;12.67;3.00;;;17.90;99.90;;;;;;5115212;28;20201;-83
2022/10/01 13:05:51;;;;;;;13.77;2.97;;;17.80;99.90;;;;;;5115403;28;20234;-82
2022/10/01 13:08:44;;;;;;;8.43;2.50;;;17.70;99.90;;;;;;5115016;28;20230;-82